createdAt,value
2019-05-17T00:03:17.003Z,10.10
2019-05-17T00:06:41.461Z,10.10
2019-05-17T00:10:06.807Z,10.10
2019-05-17T00:13:30.516Z,10.10
2019-05-17T00:16:53.791Z,10.10
2019-05-17T00:20:17.533Z,10.10
2019-05-17T00:23:41.523Z,10.10
2019-05-17T00:27:06.745Z,10.10
2019-05-17T00:30:30.066Z,10.10
2019-05-17T00:33:53.423Z,10.20
2019-05-17T00:37:17.765Z,10.20
2019-05-17T00:40:41.206Z,10.20
2019-05-17T00:44:06.332Z,10.20
2019-05-17T00:47:29.766Z,10.10
2019-05-17T00:50:54.225Z,10.10
2019-05-17T00:54:17.733Z,10.10
2019-05-17T00:57:40.935Z,10.00
2019-05-17T01:01:04.145Z,10.00
2019-05-17T01:04:27.681Z,10.00
2019-05-17T01:07:50.935Z,10.00
2019-05-17T01:11:16.507Z,10.00
2019-05-17T01:14:39.926Z,10.00
2019-05-17T01:18:03.109Z,10.10
2019-05-17T01:21:26.369Z,10.10
2019-05-17T01:24:50.014Z,10.10
2019-05-17T01:28:13.206Z,10.10
2019-05-17T01:31:37.327Z,10.20
2019-05-17T01:35:00.886Z,10.20
2019-05-17T01:38:26.939Z,10.20
2019-05-17T01:41:50.259Z,10.20
2019-05-17T01:45:16.472Z,10.20
2019-05-17T01:48:39.467Z,10.20
2019-05-17T01:52:03.773Z,10.20
2019-05-17T01:55:27.028Z,10.30
2019-05-17T01:58:50.882Z,10.30
2019-05-17T02:02:17.318Z,10.30
2019-05-17T02:05:40.671Z,10.30
2019-05-17T02:09:06.351Z,10.30
2019-05-17T02:12:30.113Z,10.30
2019-05-17T02:15:53.204Z,10.30
2019-05-17T02:19:17.412Z,10.30
2019-05-17T02:22:40.835Z,10.30
2019-05-17T02:26:06.475Z,10.40
2019-05-17T02:29:29.461Z,10.40
2019-05-17T02:32:54.067Z,10.30
2019-05-17T02:36:17.444Z,10.40
2019-05-17T02:39:56.586Z,10.30
2019-05-17T02:43:06.036Z,10.30
2019-05-17T02:46:29.174Z,10.30
2019-05-17T02:49:52.613Z,10.40
2019-05-17T02:53:15.801Z,10.30
2019-05-17T02:56:38.968Z,10.30
2019-05-17T03:00:04.310Z,10.30
2019-05-17T03:03:28.243Z,10.20
2019-05-17T03:06:53.202Z,10.20
2019-05-17T03:10:24.101Z,10.20
2019-05-17T03:13:43.431Z,10.20
2019-05-17T03:17:06.915Z,10.10
2019-05-17T03:20:32.799Z,10.10
2019-05-17T03:23:55.554Z,10.10
2019-05-17T03:27:19.043Z,10.10
2019-05-17T03:30:46.597Z,10.10
2019-05-17T03:34:09.062Z,10.10
2019-05-17T03:37:37.911Z,10.10
2019-05-17T03:41:13.369Z,10.10
2019-05-17T03:44:26.008Z,10.10
2019-05-17T03:47:49.117Z,10.10
2019-05-17T03:51:13.125Z,10.10
2019-05-17T03:54:36.705Z,10.10
2019-05-17T03:58:03.091Z,10.10
2019-05-17T04:01:25.180Z,10.10
2019-05-17T04:04:48.508Z,10.10
2019-05-17T04:08:13.882Z,10.10
2019-05-17T04:11:37.012Z,10.10
2019-05-17T04:15:03.245Z,10.20
2019-05-17T04:18:25.787Z,10.20
2019-05-17T04:21:49.049Z,10.20
2019-05-17T04:25:13.701Z,10.30
2019-05-17T04:28:37.347Z,10.40
2019-05-17T04:32:03.554Z,10.40
2019-05-17T04:35:26.615Z,10.40
2019-05-17T04:38:52.604Z,10.40
2019-05-17T04:42:22.407Z,10.50
2019-05-17T04:45:44.179Z,10.50
2019-05-17T04:49:07.301Z,10.60
2019-05-17T04:52:33.484Z,10.60
2019-05-17T04:55:55.629Z,10.70
2019-05-17T04:59:18.768Z,10.70
2019-05-17T05:02:43.621Z,10.80
2019-05-17T05:06:07.123Z,10.90
2019-05-17T05:09:32.257Z,10.90
2019-05-17T05:12:56.076Z,11.00
2019-05-17T05:16:22.448Z,11.20
2019-05-17T05:19:44.642Z,11.30
2019-05-17T05:23:08.998Z,11.40
2019-05-17T05:26:32.278Z,11.40
2019-05-17T05:29:55.527Z,11.50
2019-05-17T05:33:18.662Z,11.60
2019-05-17T05:36:42.037Z,11.60
2019-05-17T05:40:05.763Z,11.70
2019-05-17T05:43:32.433Z,11.80
2019-05-17T05:46:55.243Z,11.90
2019-05-17T05:50:18.567Z,11.90
2019-05-17T05:53:42.118Z,11.90
2019-05-17T05:57:05.845Z,12.00
2019-05-17T06:00:29.157Z,12.10
2019-05-17T06:03:52.436Z,12.10
2019-05-17T06:07:15.683Z,12.10
2019-05-17T06:10:39.644Z,12.20
2019-05-17T06:14:03.940Z,12.30
2019-05-17T06:17:27.155Z,12.40
2019-05-17T06:20:52.358Z,12.50
2019-05-17T06:24:15.936Z,12.70
2019-05-17T06:27:41.368Z,12.90
2019-05-17T06:31:04.255Z,12.90
2019-05-17T06:34:27.343Z,13.00
2019-05-17T06:37:50.749Z,13.10
2019-05-17T06:41:13.883Z,13.30
2019-05-17T06:44:37.545Z,13.40
2019-05-17T06:48:02.496Z,13.50
2019-05-17T06:51:25.849Z,13.60
2019-05-17T06:54:49.434Z,13.70
2019-05-17T06:58:12.604Z,13.80
2019-05-17T07:01:35.742Z,13.90
2019-05-17T07:05:02.381Z,14.00
2019-05-17T07:08:26.725Z,14.10
2019-05-17T07:11:51.321Z,14.00
2019-05-17T07:15:14.934Z,14.10
2019-05-17T07:18:39.958Z,14.30
2019-05-17T07:22:03.308Z,14.50
2019-05-17T07:25:30.287Z,14.50
2019-05-17T07:28:53.311Z,14.50
2019-05-17T07:32:19.293Z,14.40
2019-05-17T07:35:42.143Z,14.40
2019-05-17T07:39:05.373Z,14.30
2019-05-17T07:42:29.853Z,14.20
2019-05-17T07:45:53.174Z,14.30
2019-05-17T07:49:16.617Z,14.30
2019-05-17T07:52:40.068Z,14.40
2019-05-17T07:56:03.745Z,14.60
2019-05-17T07:59:29.460Z,14.70
2019-05-17T08:02:52.586Z,14.80
2019-05-17T08:06:15.735Z,14.90
2019-05-17T08:09:40.428Z,14.70
2019-05-17T08:13:03.913Z,14.70
2019-05-17T08:16:27.421Z,14.50
2019-05-17T08:19:50.559Z,14.60
2019-05-17T08:23:14.032Z,14.90
2019-05-17T08:26:37.384Z,15.20
2019-05-17T08:30:00.625Z,15.60
2019-05-17T08:33:23.865Z,15.70
2019-05-17T08:36:47.188Z,16.00
2019-05-17T08:40:11.050Z,16.00
2019-05-17T08:43:42.574Z,15.80
2019-05-17T08:46:59.590Z,15.70
2019-05-17T08:50:23.893Z,15.50
2019-05-17T08:53:49.171Z,15.10
2019-05-17T08:57:12.205Z,14.80
2019-05-17T09:00:35.405Z,14.40
2019-05-17T09:03:59.858Z,14.20
2019-05-17T09:07:23.367Z,14.20
2019-05-17T09:10:46.489Z,14.40
2019-05-17T09:14:10.449Z,14.60
2019-05-17T09:17:33.941Z,14.80
2019-05-17T09:20:57.438Z,15.00
2019-05-17T09:24:20.811Z,15.00
2019-05-17T09:27:44.149Z,14.80
2019-05-17T09:31:07.257Z,14.80
2019-05-17T09:34:30.480Z,14.60
2019-05-17T09:37:53.699Z,14.60
2019-05-17T09:41:17.135Z,14.40
2019-05-17T09:44:40.535Z,14.20
2019-05-17T09:48:04.317Z,14.10
2019-05-17T09:51:27.559Z,14.00
2019-05-17T09:54:50.660Z,14.00
2019-05-17T09:58:13.836Z,13.90
2019-05-17T10:01:39.301Z,14.10
2019-05-17T10:05:02.078Z,14.40
2019-05-17T10:08:25.600Z,14.70
2019-05-17T10:11:49.318Z,14.80
2019-05-17T10:15:13.536Z,15.00
2019-05-17T10:18:36.943Z,15.10
2019-05-17T10:22:00.268Z,15.30
2019-05-17T10:25:24.521Z,15.20
2019-05-17T10:28:47.796Z,15.10
2019-05-17T10:32:11.191Z,15.10
2019-05-17T10:35:34.544Z,15.30
2019-05-17T10:38:59.239Z,15.20
2019-05-17T10:42:22.784Z,15.30
2019-05-17T10:45:46.052Z,15.30
2019-05-17T10:49:10.902Z,15.30
2019-05-17T10:52:34.357Z,15.20
2019-05-17T10:56:00.415Z,15.20
2019-05-17T10:59:23.319Z,15.00
2019-05-17T11:02:46.504Z,15.00
2019-05-17T11:06:10.967Z,15.00
2019-05-17T11:09:34.549Z,15.00
2019-05-17T11:12:57.835Z,15.10
2019-05-17T11:16:24.316Z,14.90
2019-05-17T11:19:47.539Z,14.80
2019-05-17T11:23:10.896Z,14.70
2019-05-17T11:26:34.030Z,14.50
2019-05-17T11:29:57.440Z,14.10
2019-05-17T11:33:20.718Z,14.00
2019-05-17T11:36:43.848Z,13.80
2019-05-17T11:40:08.409Z,13.70
2019-05-17T11:43:32.176Z,13.60
2019-05-17T11:46:55.277Z,13.50
2019-05-17T11:50:18.616Z,13.40
2019-05-17T11:53:41.727Z,13.40
2019-05-17T11:57:05.011Z,13.70
2019-05-17T12:00:29.683Z,14.00
2019-05-17T12:03:52.809Z,14.40
2019-05-17T12:07:16.165Z,14.80
2019-05-17T12:10:39.417Z,15.30
2019-05-17T12:14:03.093Z,15.80
2019-05-17T12:17:26.203Z,16.30
2019-05-17T12:20:49.324Z,16.40
2019-05-17T12:24:13.000Z,16.30
2019-05-17T12:27:36.832Z,16.10
2019-05-17T12:31:00.142Z,15.90
2019-05-17T12:34:23.541Z,15.70
2019-05-17T12:37:46.830Z,15.60
2019-05-17T12:41:09.954Z,15.40
2019-05-17T12:44:36.923Z,15.30
2019-05-17T12:47:58.984Z,15.00
2019-05-17T12:51:22.051Z,15.10
2019-05-17T12:54:45.347Z,15.40
2019-05-17T12:58:09.717Z,15.60
2019-05-17T13:01:33.358Z,15.80
2019-05-17T13:04:56.715Z,15.90
2019-05-17T13:08:20.014Z,15.50
2019-05-17T13:11:43.270Z,14.90
2019-05-17T13:15:07.818Z,14.30
2019-05-17T13:18:31.025Z,13.90
2019-05-17T13:21:54.213Z,13.40
2019-05-17T13:25:17.787Z,13.30
2019-05-17T13:28:41.093Z,13.10
2019-05-17T13:32:04.178Z,13.00
2019-05-17T13:35:27.394Z,12.80
2019-05-17T13:38:50.653Z,12.80
2019-05-17T13:42:13.973Z,12.70
2019-05-17T13:45:37.118Z,12.80
2019-05-17T13:49:00.540Z,13.10
2019-05-17T13:52:23.749Z,13.30
2019-05-17T13:55:46.807Z,13.70
2019-05-17T13:59:10.230Z,13.80
2019-05-17T14:02:33.604Z,13.80
2019-05-17T14:05:56.923Z,13.70
2019-05-17T14:09:20.310Z,13.70
2019-05-17T14:12:43.504Z,13.70
2019-05-17T14:16:06.620Z,14.00
2019-05-17T14:19:29.833Z,14.40
2019-05-17T14:22:53.183Z,14.80
2019-05-17T14:26:16.263Z,14.80
2019-05-17T14:29:39.601Z,14.70
2019-05-17T14:33:02.702Z,14.50
2019-05-17T14:36:25.842Z,14.30
2019-05-17T14:39:49.139Z,14.20
2019-05-17T14:43:13.452Z,14.10
2019-05-17T14:46:36.581Z,14.20
2019-05-17T14:49:59.750Z,14.50
2019-05-17T14:53:23.084Z,14.70
2019-05-17T14:56:46.292Z,14.70
2019-05-17T15:00:09.655Z,14.80
2019-05-17T15:03:32.988Z,14.80
2019-05-17T15:06:56.271Z,14.80
2019-05-17T15:10:19.733Z,14.90
2019-05-17T15:13:42.944Z,15.00
2019-05-17T15:17:06.224Z,15.00
2019-05-17T15:20:29.384Z,14.90
2019-05-17T15:23:52.575Z,14.80
2019-05-17T15:27:15.841Z,14.60
2019-05-17T15:30:39.125Z,14.40
2019-05-17T15:34:04.250Z,14.30
2019-05-17T15:37:27.559Z,14.20
2019-05-17T15:40:50.795Z,14.10
2019-05-17T15:44:14.015Z,14.00
2019-05-17T15:47:37.257Z,13.90
2019-05-17T15:51:01.781Z,13.80
2019-05-17T15:54:25.099Z,13.90
2019-05-17T15:57:48.204Z,14.00
2019-05-17T16:01:11.758Z,14.20
2019-05-17T16:04:35.183Z,14.30
2019-05-17T16:07:58.316Z,14.50
2019-05-17T16:11:21.811Z,14.50
2019-05-17T16:14:45.144Z,14.40
2019-05-17T16:18:08.304Z,14.30
2019-05-17T16:21:31.368Z,14.20
2019-05-17T16:24:54.586Z,14.10
2019-05-17T16:28:17.971Z,14.10
2019-05-17T16:31:41.114Z,14.10
2019-05-17T16:35:05.456Z,14.20
2019-05-17T16:38:28.705Z,14.30
2019-05-17T16:41:51.907Z,14.40
2019-05-17T16:45:19.320Z,14.40
2019-05-17T16:48:42.746Z,14.50
2019-05-17T16:52:06.299Z,14.50
2019-05-17T16:55:29.407Z,14.50
2019-05-17T16:58:52.728Z,14.60
2019-05-17T17:02:16.099Z,14.60
2019-05-17T17:05:39.300Z,14.60
2019-05-17T17:09:04.165Z,14.70
2019-05-17T17:12:28.478Z,14.70
2019-05-17T17:15:52.336Z,14.80
2019-05-17T17:19:15.736Z,14.80
2019-05-17T17:22:39.185Z,14.90
2019-05-17T17:26:02.861Z,14.90
2019-05-17T17:29:26.451Z,15.00
2019-05-17T17:32:49.715Z,15.00
2019-05-17T17:36:12.887Z,15.00
2019-05-17T17:39:36.154Z,14.80
2019-05-17T17:42:59.990Z,14.70
2019-05-17T17:46:23.226Z,14.60
2019-05-17T17:49:49.873Z,14.40
2019-05-17T17:53:13.187Z,14.20
2019-05-17T17:56:37.454Z,14.00
2019-05-17T18:00:01.975Z,13.90
2019-05-17T18:03:27.110Z,13.80
2019-05-17T18:06:51.301Z,13.80
2019-05-17T18:10:30.128Z,13.70
2019-05-17T18:13:54.039Z,13.70
2019-05-17T18:17:18.010Z,13.60
2019-05-17T18:20:41.253Z,13.60
2019-05-17T18:24:05.474Z,13.50
2019-05-17T18:27:28.624Z,13.50
2019-05-17T18:30:52.967Z,13.50
2019-05-17T18:34:21.559Z,13.40
2019-05-17T18:37:44.863Z,13.40
2019-05-17T18:41:08.697Z,13.30
2019-05-17T18:44:32.299Z,13.30
2019-05-17T18:47:58.404Z,13.20
2019-05-17T18:51:23.611Z,13.20
2019-05-17T18:54:46.944Z,13.20
2019-05-17T18:58:11.261Z,13.10
2019-05-17T19:01:34.756Z,13.10
2019-05-17T19:04:59.105Z,13.10
2019-05-17T19:08:22.586Z,13.00
2019-05-17T19:11:45.859Z,13.00
2019-05-17T19:15:10.771Z,13.00
2019-05-17T19:18:35.646Z,12.90
2019-05-17T19:21:59.385Z,12.90
2019-05-17T19:25:24.198Z,12.90
2019-05-17T19:28:47.684Z,12.90
2019-05-17T19:32:11.170Z,12.80
2019-05-17T19:35:37.833Z,12.80
2019-05-17T19:39:01.439Z,12.70
2019-05-17T19:42:25.976Z,12.70
2019-05-17T19:45:49.579Z,12.70
2019-05-17T19:49:14.158Z,12.70
2019-05-17T19:52:37.801Z,12.60
2019-05-17T19:56:01.199Z,12.60
2019-05-17T19:59:24.845Z,12.60
2019-05-17T20:02:48.468Z,12.50
2019-05-17T20:06:12.659Z,12.60
2019-05-17T20:09:36.633Z,12.60
2019-05-17T20:13:01.092Z,12.50
2019-05-17T20:16:24.674Z,12.50
2019-05-17T20:19:48.495Z,12.50
2019-05-17T20:23:12.645Z,12.40
2019-05-17T20:26:36.072Z,12.40
2019-05-17T20:29:59.753Z,12.40
2019-05-17T20:33:23.297Z,12.30
2019-05-17T20:36:47.162Z,12.30
2019-05-17T20:40:11.071Z,12.30
2019-05-17T20:43:34.374Z,12.20
2019-05-17T20:46:57.858Z,12.20
2019-05-17T20:50:21.454Z,12.20
2019-05-17T20:53:45.011Z,12.20
2019-05-17T20:57:08.627Z,12.20
2019-05-17T21:00:31.991Z,12.20
2019-05-17T21:03:55.469Z,12.20
2019-05-17T21:07:26.960Z,12.20
2019-05-17T21:10:51.059Z,12.20
2019-05-17T21:14:14.910Z,12.20
2019-05-17T21:25:26.093Z,12.20
2019-05-17T21:28:49.289Z,12.20
2019-05-17T21:32:13.870Z,12.10
2019-05-17T21:35:37.063Z,12.10
2019-05-17T21:39:00.449Z,12.00
2019-05-17T21:42:23.710Z,12.00
2019-05-17T21:45:46.991Z,12.00
2019-05-17T21:49:10.347Z,12.00
2019-05-17T21:52:33.576Z,11.90
2019-05-17T21:55:57.219Z,11.90
2019-05-17T21:59:20.841Z,11.90
2019-05-17T22:02:44.069Z,11.90
2019-05-17T22:06:20.142Z,11.80
2019-05-17T22:09:44.546Z,11.80
2019-05-17T22:13:09.065Z,11.80
2019-05-17T22:16:32.601Z,11.70
2019-05-17T22:19:57.053Z,11.70
2019-05-17T22:23:20.479Z,11.60
2019-05-17T22:26:43.609Z,11.60
2019-05-17T22:30:07.527Z,11.50
2019-05-17T22:33:31.578Z,11.40
2019-05-17T22:36:54.882Z,11.40
2019-05-17T22:40:18.591Z,11.30
2019-05-17T22:43:41.731Z,11.20
2019-05-17T22:47:05.233Z,11.20
2019-05-17T22:50:28.439Z,11.10
2019-05-17T22:53:51.835Z,11.00
2019-05-17T22:57:15.604Z,10.90
2019-05-17T23:00:39.244Z,10.80
2019-05-17T23:04:02.468Z,10.70
2019-05-17T23:07:25.606Z,10.60
2019-05-17T23:10:48.833Z,10.50
2019-05-17T23:14:12.088Z,10.40
2019-05-17T23:17:35.245Z,10.30
2019-05-17T23:20:58.375Z,10.10
2019-05-17T23:24:21.616Z,10.00
2019-05-17T23:27:45.057Z,9.90
2019-05-17T23:31:08.522Z,9.80
2019-05-17T23:34:31.752Z,9.70
2019-05-17T23:37:55.098Z,9.60
2019-05-17T23:41:18.273Z,9.50
2019-05-17T23:44:41.353Z,9.50
2019-05-17T23:48:04.660Z,9.50
2019-05-17T23:51:27.904Z,9.40
2019-05-17T23:54:51.341Z,9.40
2019-05-17T23:58:14.400Z,9.40
